sensor_id;sensor_type;location;lat;lon;timestamp;P1;durP1;ratioP1;P2;durP2;ratioP2
10248;SDS011;5169;50.560;9.714;2023-06-14T00:02:25;368.03;;;132.60;;
10248;SDS011;5169;50.560;9.714;2023-06-14T00:04:50;374.53;;;137.33;;
10248;SDS011;5169;50.560;9.714;2023-06-14T00:07:21;373.33;;;130.03;;
10248;SDS011;5169;50.560;9.714;2023-06-14T00:09:58;373.37;;;129.10;;
10248;SDS011;5169;50.560;9.714;2023-06-14T00:12:23;372.40;;;136.30;;
10248;SDS011;5169;50.560;9.714;2023-06-14T00:14:49;375.87;;;137.67;;
10248;SDS011;5169;50.560;9.714;2023-06-14T00:17:15;371.83;;;132.07;;
10248;SDS011;5169;50.560;9.714;2023-06-14T00:19:47;374.67;;;134.43;;
10248;SDS011;5169;50.560;9.714;2023-06-14T00:22:15;371.10;;;131.27;;
10248;SDS011;5169;50.560;9.714;2023-06-14T00:24:41;371.17;;;131.57;;
10248;SDS011;5169;50.560;9.714;2023-06-14T00:27:06;371.90;;;130.70;;
10248;SDS011;5169;50.560;9.714;2023-06-14T00:29:36;369.07;;;125.67;;
10248;SDS011;5169;50.560;9.714;2023-06-14T00:32:04;372.33;;;128.83;;
10248;SDS011;5169;50.560;9.714;2023-06-14T00:34:38;371.10;;;127.70;;
10248;SDS011;5169;50.560;9.714;2023-06-14T00:37:06;371.80;;;130.53;;
10248;SDS011;5169;50.560;9.714;2023-06-14T00:39:35;370.80;;;128.13;;
10248;SDS011;5169;50.560;9.714;2023-06-14T00:42:01;367.73;;;128.23;;
10248;SDS011;5169;50.560;9.714;2023-06-14T00:44:30;369.50;;;128.43;;
10248;SDS011;5169;50.560;9.714;2023-06-14T00:46:55;371.07;;;125.83;;
10248;SDS011;5169;50.560;9.714;2023-06-14T00:49:23;366.20;;;120.77;;
10248;SDS011;5169;50.560;9.714;2023-06-14T00:51:49;372.27;;;131.57;;
10248;SDS011;5169;50.560;9.714;2023-06-14T00:54:16;367.17;;;125.93;;
10248;SDS011;5169;50.560;9.714;2023-06-14T00:56:44;371.93;;;129.63;;
10248;SDS011;5169;50.560;9.714;2023-06-14T00:59:12;371.13;;;131.00;;
10248;SDS011;5169;50.560;9.714;2023-06-14T01:01:38;370.57;;;128.43;;
10248;SDS011;5169;50.560;9.714;2023-06-14T01:04:07;371.70;;;130.93;;
10248;SDS011;5169;50.560;9.714;2023-06-14T01:06:45;368.17;;;123.73;;
10248;SDS011;5169;50.560;9.714;2023-06-14T01:11:54;369.53;;;131.10;;
10248;SDS011;5169;50.560;9.714;2023-06-14T01:14:43;369.93;;;123.50;;
10248;SDS011;5169;50.560;9.714;2023-06-14T01:17:10;367.37;;;124.83;;
10248;SDS011;5169;50.560;9.714;2023-06-14T01:19:43;367.30;;;120.57;;
10248;SDS011;5169;50.560;9.714;2023-06-14T01:22:10;365.47;;;121.97;;
10248;SDS011;5169;50.560;9.714;2023-06-14T01:24:38;366.43;;;124.20;;
10248;SDS011;5169;50.560;9.714;2023-06-14T01:27:04;366.17;;;120.43;;
10248;SDS011;5169;50.560;9.714;2023-06-14T01:29:35;372.33;;;126.90;;
10248;SDS011;5169;50.560;9.714;2023-06-14T01:32:06;366.33;;;121.83;;
10248;SDS011;5169;50.560;9.714;2023-06-14T01:34:35;364.20;;;117.20;;
10248;SDS011;5169;50.560;9.714;2023-06-14T01:37:01;363.27;;;115.27;;
10248;SDS011;5169;50.560;9.714;2023-06-14T01:39:27;366.57;;;120.10;;
10248;SDS011;5169;50.560;9.714;2023-06-14T01:41:54;365.10;;;117.07;;
10248;SDS011;5169;50.560;9.714;2023-06-14T01:44:19;362.57;;;116.87;;
10248;SDS011;5169;50.560;9.714;2023-06-14T01:46:45;362.77;;;117.70;;
10248;SDS011;5169;50.560;9.714;2023-06-14T01:49:21;364.27;;;110.37;;
10248;SDS011;5169;50.560;9.714;2023-06-14T01:51:52;361.90;;;113.53;;
10248;SDS011;5169;50.560;9.714;2023-06-14T01:54:20;360.10;;;112.73;;
10248;SDS011;5169;50.560;9.714;2023-06-14T01:56:47;365.50;;;113.17;;
10248;SDS011;5169;50.560;9.714;2023-06-14T01:59:13;359.13;;;110.07;;
10248;SDS011;5169;50.560;9.714;2023-06-14T02:01:38;359.57;;;112.23;;
10248;SDS011;5169;50.560;9.714;2023-06-14T02:04:06;361.53;;;111.03;;
10248;SDS011;5169;50.560;9.714;2023-06-14T02:06:32;360.77;;;112.73;;
10248;SDS011;5169;50.560;9.714;2023-06-14T02:09:08;359.63;;;107.23;;
10248;SDS011;5169;50.560;9.714;2023-06-14T02:11:34;359.20;;;109.97;;
10248;SDS011;5169;50.560;9.714;2023-06-14T02:13:59;358.93;;;110.13;;
10248;SDS011;5169;50.560;9.714;2023-06-14T02:16:26;359.60;;;110.20;;
10248;SDS011;5169;50.560;9.714;2023-06-14T02:18:53;357.90;;;108.93;;
10248;SDS011;5169;50.560;9.714;2023-06-14T02:21:19;356.63;;;106.47;;
10248;SDS011;5169;50.560;9.714;2023-06-14T02:23:44;357.97;;;106.30;;
10248;SDS011;5169;50.560;9.714;2023-06-14T02:26:10;353.47;;;105.33;;
10248;SDS011;5169;50.560;9.714;2023-06-14T02:28:35;358.80;;;107.50;;
10248;SDS011;5169;50.560;9.714;2023-06-14T02:31:17;355.30;;;103.33;;
10248;SDS011;5169;50.560;9.714;2023-06-14T02:33:43;357.03;;;106.10;;
10248;SDS011;5169;50.560;9.714;2023-06-14T02:36:08;352.50;;;102.00;;
10248;SDS011;5169;50.560;9.714;2023-06-14T02:38:34;356.47;;;106.80;;
10248;SDS011;5169;50.560;9.714;2023-06-14T02:41:00;359.30;;;108.47;;
10248;SDS011;5169;50.560;9.714;2023-06-14T02:43:28;357.10;;;102.03;;
10248;SDS011;5169;50.560;9.714;2023-06-14T02:45:55;355.13;;;102.97;;
10248;SDS011;5169;50.560;9.714;2023-06-14T02:48:20;355.13;;;103.00;;
10248;SDS011;5169;50.560;9.714;2023-06-14T02:50:46;353.00;;;98.17;;
10248;SDS011;5169;50.560;9.714;2023-06-14T02:53:11;349.47;;;100.33;;
10248;SDS011;5169;50.560;9.714;2023-06-14T02:55:43;352.97;;;103.27;;
10248;SDS011;5169;50.560;9.714;2023-06-14T02:58:11;355.30;;;101.33;;
10248;SDS011;5169;50.560;9.714;2023-06-14T03:00:44;354.00;;;100.87;;
10248;SDS011;5169;50.560;9.714;2023-06-14T03:03:16;355.43;;;103.93;;
10248;SDS011;5169;50.560;9.714;2023-06-14T03:05:48;352.73;;;99.87;;
10248;SDS011;5169;50.560;9.714;2023-06-14T03:08:16;352.27;;;99.03;;
10248;SDS011;5169;50.560;9.714;2023-06-14T03:10:52;350.40;;;95.27;;
10248;SDS011;5169;50.560;9.714;2023-06-14T03:13:21;347.47;;;92.70;;
10248;SDS011;5169;50.560;9.714;2023-06-14T03:15:52;349.50;;;95.53;;
10248;SDS011;5169;50.560;9.714;2023-06-14T03:18:17;347.47;;;95.03;;
10248;SDS011;5169;50.560;9.714;2023-06-14T03:20:44;352.80;;;94.93;;
10248;SDS011;5169;50.560;9.714;2023-06-14T03:23:19;351.43;;;95.60;;
10248;SDS011;5169;50.560;9.714;2023-06-14T03:25:44;355.37;;;100.60;;
10248;SDS011;5169;50.560;9.714;2023-06-14T03:28:13;347.93;;;95.50;;
10248;SDS011;5169;50.560;9.714;2023-06-14T03:30:41;351.33;;;94.87;;
10248;SDS011;5169;50.560;9.714;2023-06-14T03:33:07;351.87;;;100.27;;
10248;SDS011;5169;50.560;9.714;2023-06-14T03:35:33;355.43;;;98.13;;
10248;SDS011;5169;50.560;9.714;2023-06-14T03:37:59;348.40;;;94.63;;
10248;SDS011;5169;50.560;9.714;2023-06-14T03:40:32;354.87;;;95.50;;
10248;SDS011;5169;50.560;9.714;2023-06-14T03:43:00;349.73;;;93.93;;
10248;SDS011;5169;50.560;9.714;2023-06-14T03:45:31;348.63;;;93.67;;
10248;SDS011;5169;50.560;9.714;2023-06-14T03:47:59;347.93;;;95.57;;
10248;SDS011;5169;50.560;9.714;2023-06-14T03:50:25;348.10;;;95.80;;
10248;SDS011;5169;50.560;9.714;2023-06-14T03:52:54;347.33;;;93.40;;
10248;SDS011;5169;50.560;9.714;2023-06-14T03:55:22;346.37;;;93.73;;
10248;SDS011;5169;50.560;9.714;2023-06-14T03:57:51;348.63;;;96.33;;
10248;SDS011;5169;50.560;9.714;2023-06-14T04:00:24;347.67;;;92.97;;
10248;SDS011;5169;50.560;9.714;2023-06-14T04:02:51;347.40;;;96.10;;
10248;SDS011;5169;50.560;9.714;2023-06-14T04:05:17;346.63;;;91.70;;
10248;SDS011;5169;50.560;9.714;2023-06-14T04:07:46;348.03;;;92.17;;
10248;SDS011;5169;50.560;9.714;2023-06-14T04:10:13;345.13;;;93.00;;
10248;SDS011;5169;50.560;9.714;2023-06-14T04:12:40;345.43;;;91.73;;
10248;SDS011;5169;50.560;9.714;2023-06-14T04:15:05;347.73;;;95.83;;
10248;SDS011;5169;50.560;9.714;2023-06-14T04:17:38;347.00;;;96.33;;
10248;SDS011;5169;50.560;9.714;2023-06-14T04:20:12;344.37;;;93.93;;
10248;SDS011;5169;50.560;9.714;2023-06-14T04:22:41;345.97;;;95.60;;
10248;SDS011;5169;50.560;9.714;2023-06-14T04:25:10;343.77;;;93.00;;
10248;SDS011;5169;50.560;9.714;2023-06-14T04:27:38;344.50;;;94.90;;
10248;SDS011;5169;50.560;9.714;2023-06-14T04:30:04;346.43;;;96.70;;
10248;SDS011;5169;50.560;9.714;2023-06-14T04:32:36;343.83;;;96.43;;
10248;SDS011;5169;50.560;9.714;2023-06-14T04:35:06;344.80;;;95.03;;
10248;SDS011;5169;50.560;9.714;2023-06-14T04:37:40;340.13;;;91.93;;
10248;SDS011;5169;50.560;9.714;2023-06-14T04:40:06;339.50;;;91.87;;
10248;SDS011;5169;50.560;9.714;2023-06-14T04:42:38;348.93;;;100.83;;
10248;SDS011;5169;50.560;9.714;2023-06-14T04:45:14;347.47;;;98.33;;
10248;SDS011;5169;50.560;9.714;2023-06-14T04:47:42;348.53;;;96.63;;
10248;SDS011;5169;50.560;9.714;2023-06-14T04:50:11;352.37;;;102.03;;
10248;SDS011;5169;50.560;9.714;2023-06-14T04:52:37;355.20;;;103.07;;
10248;SDS011;5169;50.560;9.714;2023-06-14T04:55:03;348.80;;;100.97;;
10248;SDS011;5169;50.560;9.714;2023-06-14T04:57:29;351.47;;;102.47;;
10248;SDS011;5169;50.560;9.714;2023-06-14T04:59:59;353.73;;;103.97;;
10248;SDS011;5169;50.560;9.714;2023-06-14T05:02:25;350.37;;;104.93;;
10248;SDS011;5169;50.560;9.714;2023-06-14T05:04:52;350.70;;;103.00;;
10248;SDS011;5169;50.560;9.714;2023-06-14T05:07:19;344.33;;;99.50;;
10248;SDS011;5169;50.560;9.714;2023-06-14T05:09:53;344.60;;;98.13;;
10248;SDS011;5169;50.560;9.714;2023-06-14T05:12:19;344.27;;;99.03;;
10248;SDS011;5169;50.560;9.714;2023-06-14T05:14:54;352.00;;;103.67;;
10248;SDS011;5169;50.560;9.714;2023-06-14T05:17:25;352.47;;;108.00;;
10248;SDS011;5169;50.560;9.714;2023-06-14T05:19:52;350.37;;;104.93;;
10248;SDS011;5169;50.560;9.714;2023-06-14T05:22:26;344.57;;;101.07;;
10248;SDS011;5169;50.560;9.714;2023-06-14T05:24:52;344.63;;;115.13;;
10248;SDS011;5169;50.560;9.714;2023-06-14T05:27:17;349.07;;;112.90;;
10248;SDS011;5169;50.560;9.714;2023-06-14T05:29:50;341.67;;;114.30;;
10248;SDS011;5169;50.560;9.714;2023-06-14T05:32:16;339.53;;;119.30;;
10248;SDS011;5169;50.560;9.714;2023-06-14T05:34:42;337.33;;;120.83;;
10248;SDS011;5169;50.560;9.714;2023-06-14T05:37:12;335.63;;;118.83;;
10248;SDS011;5169;50.560;9.714;2023-06-14T05:39:38;337.33;;;127.50;;
10248;SDS011;5169;50.560;9.714;2023-06-14T05:42:06;339.03;;;128.40;;
10248;SDS011;5169;50.560;9.714;2023-06-14T05:44:31;346.53;;;146.07;;
10248;SDS011;5169;50.560;9.714;2023-06-14T05:47:00;347.97;;;154.37;;
10248;SDS011;5169;50.560;9.714;2023-06-14T05:49:28;341.73;;;175.57;;
10248;SDS011;5169;50.560;9.714;2023-06-14T05:51:56;360.40;;;215.10;;
10248;SDS011;5169;50.560;9.714;2023-06-14T05:54:27;365.87;;;241.27;;
10248;SDS011;5169;50.560;9.714;2023-06-14T05:56:53;365.17;;;275.13;;
10248;SDS011;5169;50.560;9.714;2023-06-14T05:59:19;368.10;;;295.13;;
10248;SDS011;5169;50.560;9.714;2023-06-14T06:01:54;376.13;;;306.90;;
10248;SDS011;5169;50.560;9.714;2023-06-14T06:04:24;383.03;;;334.67;;
10248;SDS011;5169;50.560;9.714;2023-06-14T06:06:50;393.20;;;351.30;;
10248;SDS011;5169;50.560;9.714;2023-06-14T06:09:18;405.10;;;362.70;;
10248;SDS011;5169;50.560;9.714;2023-06-14T06:11:51;395.77;;;352.63;;
10248;SDS011;5169;50.560;9.714;2023-06-14T06:14:18;400.50;;;359.73;;
10248;SDS011;5169;50.560;9.714;2023-06-14T06:16:49;401.70;;;360.83;;
10248;SDS011;5169;50.560;9.714;2023-06-14T06:19:15;379.80;;;339.50;;
10248;SDS011;5169;50.560;9.714;2023-06-14T06:21:41;370.70;;;331.70;;
10248;SDS011;5169;50.560;9.714;2023-06-14T06:24:06;366.50;;;327.03;;
10248;SDS011;5169;50.560;9.714;2023-06-14T06:26:32;352.27;;;314.50;;
10248;SDS011;5169;50.560;9.714;2023-06-14T06:29:00;364.13;;;326.83;;
10248;SDS011;5169;50.560;9.714;2023-06-14T06:31:26;351.33;;;313.83;;
10248;SDS011;5169;50.560;9.714;2023-06-14T06:33:52;355.03;;;307.70;;
10248;SDS011;5169;50.560;9.714;2023-06-14T06:36:21;348.53;;;293.73;;
10248;SDS011;5169;50.560;9.714;2023-06-14T06:38:52;338.63;;;296.90;;
10248;SDS011;5169;50.560;9.714;2023-06-14T06:41:18;343.50;;;307.10;;
10248;SDS011;5169;50.560;9.714;2023-06-14T06:43:44;334.47;;;294.10;;
10248;SDS011;5169;50.560;9.714;2023-06-14T06:46:15;343.73;;;297.30;;
10248;SDS011;5169;50.560;9.714;2023-06-14T06:48:43;343.03;;;266.87;;
10248;SDS011;5169;50.560;9.714;2023-06-14T06:51:08;332.53;;;261.30;;
10248;SDS011;5169;50.560;9.714;2023-06-14T06:53:37;329.63;;;247.70;;
10248;SDS011;5169;50.560;9.714;2023-06-14T06:56:03;315.83;;;236.97;;
10248;SDS011;5169;50.560;9.714;2023-06-14T06:58:29;321.50;;;241.83;;
10248;SDS011;5169;50.560;9.714;2023-06-14T07:00:54;321.50;;;240.20;;
10248;SDS011;5169;50.560;9.714;2023-06-14T07:03:20;301.37;;;229.23;;
10248;SDS011;5169;50.560;9.714;2023-06-14T07:05:56;303.40;;;218.57;;
10248;SDS011;5169;50.560;9.714;2023-06-14T07:08:22;301.60;;;230.77;;
10248;SDS011;5169;50.560;9.714;2023-06-14T07:10:53;285.50;;;208.70;;
10248;SDS011;5169;50.560;9.714;2023-06-14T07:13:19;290.30;;;210.53;;
10248;SDS011;5169;50.560;9.714;2023-06-14T07:15:50;264.97;;;200.20;;
10248;SDS011;5169;50.560;9.714;2023-06-14T07:18:18;275.30;;;212.63;;
10248;SDS011;5169;50.560;9.714;2023-06-14T07:20:43;277.23;;;220.50;;
10248;SDS011;5169;50.560;9.714;2023-06-14T07:23:09;273.03;;;208.63;;
10248;SDS011;5169;50.560;9.714;2023-06-14T07:25:42;268.57;;;206.73;;
10248;SDS011;5169;50.560;9.714;2023-06-14T07:28:10;267.50;;;203.63;;
10248;SDS011;5169;50.560;9.714;2023-06-14T07:30:42;276.90;;;213.20;;
10248;SDS011;5169;50.560;9.714;2023-06-14T07:33:08;269.73;;;225.33;;
10248;SDS011;5169;50.560;9.714;2023-06-14T07:35:41;265.93;;;226.87;;
10248;SDS011;5169;50.560;9.714;2023-06-14T07:38:06;253.73;;;225.87;;
10248;SDS011;5169;50.560;9.714;2023-06-14T07:40:34;261.20;;;232.97;;
10248;SDS011;5169;50.560;9.714;2023-06-14T07:43:09;260.47;;;228.80;;
10248;SDS011;5169;50.560;9.714;2023-06-14T07:45:34;258.73;;;229.37;;
10248;SDS011;5169;50.560;9.714;2023-06-14T07:48:06;267.60;;;220.93;;
10248;SDS011;5169;50.560;9.714;2023-06-14T07:50:32;251.43;;;214.73;;
10248;SDS011;5169;50.560;9.714;2023-06-14T07:52:58;253.17;;;214.13;;
10248;SDS011;5169;50.560;9.714;2023-06-14T07:55:23;256.63;;;222.40;;
10248;SDS011;5169;50.560;9.714;2023-06-14T07:57:57;254.23;;;226.83;;
10248;SDS011;5169;50.560;9.714;2023-06-14T08:00:23;256.53;;;229.23;;
10248;SDS011;5169;50.560;9.714;2023-06-14T08:02:52;259.73;;;231.73;;
10248;SDS011;5169;50.560;9.714;2023-06-14T08:05:27;253.10;;;220.17;;
10248;SDS011;5169;50.560;9.714;2023-06-14T08:07:55;260.37;;;230.67;;
10248;SDS011;5169;50.560;9.714;2023-06-14T08:10:21;260.70;;;229.60;;
10248;SDS011;5169;50.560;9.714;2023-06-14T08:12:47;258.20;;;230.20;;
10248;SDS011;5169;50.560;9.714;2023-06-14T08:15:19;270.73;;;241.43;;
10248;SDS011;5169;50.560;9.714;2023-06-14T08:17:45;269.90;;;242.20;;
10248;SDS011;5169;50.560;9.714;2023-06-14T08:20:11;263.30;;;234.90;;
10248;SDS011;5169;50.560;9.714;2023-06-14T08:22:41;258.63;;;227.53;;
10248;SDS011;5169;50.560;9.714;2023-06-14T08:25:11;253.50;;;226.17;;
10248;SDS011;5169;50.560;9.714;2023-06-14T08:27:43;264.43;;;235.83;;
10248;SDS011;5169;50.560;9.714;2023-06-14T08:30:09;275.23;;;246.67;;
10248;SDS011;5169;50.560;9.714;2023-06-14T08:32:35;271.47;;;242.73;;
10248;SDS011;5169;50.560;9.714;2023-06-14T08:35:07;273.43;;;245.07;;
10248;SDS011;5169;50.560;9.714;2023-06-14T08:37:33;287.20;;;259.37;;
10248;SDS011;5169;50.560;9.714;2023-06-14T08:40:27;291.23;;;264.50;;
10248;SDS011;5169;50.560;9.714;2023-06-14T08:42:54;279.73;;;251.47;;
10248;SDS011;5169;50.560;9.714;2023-06-14T08:45:23;302.00;;;273.43;;
10248;SDS011;5169;50.560;9.714;2023-06-14T08:47:57;282.67;;;255.07;;
10248;SDS011;5169;50.560;9.714;2023-06-14T08:50:33;283.90;;;256.17;;
10248;SDS011;5169;50.560;9.714;2023-06-14T08:53:11;270.47;;;243.93;;
10248;SDS011;5169;50.560;9.714;2023-06-14T08:55:47;291.90;;;264.03;;
10248;SDS011;5169;50.560;9.714;2023-06-14T08:58:20;282.87;;;255.63;;
10248;SDS011;5169;50.560;9.714;2023-06-14T09:00:52;292.37;;;264.67;;
10248;SDS011;5169;50.560;9.714;2023-06-14T09:03:18;284.37;;;256.90;;
10248;SDS011;5169;50.560;9.714;2023-06-14T09:05:45;292.50;;;265.00;;
10248;SDS011;5169;50.560;9.714;2023-06-14T09:08:15;300.27;;;271.77;;
10248;SDS011;5169;50.560;9.714;2023-06-14T09:10:41;288.77;;;261.83;;
10248;SDS011;5169;50.560;9.714;2023-06-14T09:13:06;307.50;;;280.30;;
10248;SDS011;5169;50.560;9.714;2023-06-14T09:15:32;316.63;;;289.70;;
10248;SDS011;5169;50.560;9.714;2023-06-14T09:18:07;329.03;;;300.60;;
10248;SDS011;5169;50.560;9.714;2023-06-14T09:20:32;321.97;;;294.67;;
10248;SDS011;5169;50.560;9.714;2023-06-14T09:22:58;327.83;;;301.40;;
10248;SDS011;5169;50.560;9.714;2023-06-14T09:25:30;348.80;;;320.63;;
10248;SDS011;5169;50.560;9.714;2023-06-14T09:27:55;336.93;;;309.60;;
10248;SDS011;5169;50.560;9.714;2023-06-14T09:30:21;325.93;;;298.53;;
10248;SDS011;5169;50.560;9.714;2023-06-14T09:32:47;336.37;;;308.50;;
10248;SDS011;5169;50.560;9.714;2023-06-14T09:35:16;326.47;;;299.63;;
10248;SDS011;5169;50.560;9.714;2023-06-14T09:37:43;315.80;;;290.70;;
10248;SDS011;5169;50.560;9.714;2023-06-14T09:40:10;329.90;;;301.97;;
10248;SDS011;5169;50.560;9.714;2023-06-14T09:42:39;319.03;;;292.17;;
10248;SDS011;5169;50.560;9.714;2023-06-14T09:45:06;335.10;;;308.13;;
10248;SDS011;5169;50.560;9.714;2023-06-14T09:47:32;325.37;;;299.87;;
10248;SDS011;5169;50.560;9.714;2023-06-14T09:49:58;328.47;;;302.03;;
10248;SDS011;5169;50.560;9.714;2023-06-14T09:52:28;326.43;;;300.70;;
10248;SDS011;5169;50.560;9.714;2023-06-14T09:54:57;338.97;;;311.63;;
10248;SDS011;5169;50.560;9.714;2023-06-14T09:57:28;340.57;;;314.47;;
10248;SDS011;5169;50.560;9.714;2023-06-14T09:59:58;312.10;;;287.20;;
10248;SDS011;5169;50.560;9.714;2023-06-14T10:02:45;324.83;;;298.90;;
10248;SDS011;5169;50.560;9.714;2023-06-14T10:05:22;311.87;;;286.53;;
10248;SDS011;5169;50.560;9.714;2023-06-14T10:07:53;324.87;;;298.83;;
10248;SDS011;5169;50.560;9.714;2023-06-14T10:10:24;304.03;;;280.13;;
10248;SDS011;5169;50.560;9.714;2023-06-14T10:12:55;287.27;;;265.27;;
10248;SDS011;5169;50.560;9.714;2023-06-14T10:15:32;285.57;;;263.60;;
10248;SDS011;5169;50.560;9.714;2023-06-14T10:18:19;285.57;;;263.50;;
10248;SDS011;5169;50.560;9.714;2023-06-14T10:23:53;293.70;;;272.63;;
10248;SDS011;5169;50.560;9.714;2023-06-14T10:26:21;292.67;;;271.80;;
10248;SDS011;5169;50.560;9.714;2023-06-14T10:29:07;322.53;;;299.10;;
10248;SDS011;5169;50.560;9.714;2023-06-14T10:34:12;316.60;;;293.77;;
10248;SDS011;5169;50.560;9.714;2023-06-14T10:36:59;322.38;;;299.98;;
10248;SDS011;5169;50.560;9.714;2023-06-14T10:39:41;331.17;;;308.38;;
10248;SDS011;5169;50.560;9.714;2023-06-14T10:42:09;339.98;;;317.23;;
10248;SDS011;5169;50.560;9.714;2023-06-14T10:50:09;349.67;;;327.75;;
10248;SDS011;5169;50.560;9.714;2023-06-14T10:52:41;384.27;;;360.30;;
10248;SDS011;5169;50.560;9.714;2023-06-14T10:57:46;372.42;;;349.42;;
10248;SDS011;5169;50.560;9.714;2023-06-14T11:00:19;348.58;;;327.45;;
10248;SDS011;5169;50.560;9.714;2023-06-14T11:05:59;347.27;;;326.20;;
10248;SDS011;5169;50.560;9.714;2023-06-14T11:11:35;363.42;;;341.15;;
10248;SDS011;5169;50.560;9.714;2023-06-14T11:14:09;331.17;;;311.52;;
10248;SDS011;5169;50.560;9.714;2023-06-14T11:16:38;316.02;;;297.63;;
10248;SDS011;5169;50.560;9.714;2023-06-14T11:19:12;303.63;;;286.02;;
10248;SDS011;5169;50.560;9.714;2023-06-14T11:21:41;300.48;;;283.45;;
10248;SDS011;5169;50.560;9.714;2023-06-14T11:24:13;309.02;;;291.13;;
10248;SDS011;5169;50.560;9.714;2023-06-14T11:26:42;317.42;;;299.02;;
10248;SDS011;5169;50.560;9.714;2023-06-14T11:29:07;321.73;;;302.92;;
10248;SDS011;5169;50.560;9.714;2023-06-14T11:31:33;296.65;;;279.83;;
10248;SDS011;5169;50.560;9.714;2023-06-14T11:34:01;296.23;;;279.55;;
10248;SDS011;5169;50.560;9.714;2023-06-14T11:36:33;353.52;;;331.95;;
10248;SDS011;5169;50.560;9.714;2023-06-14T11:39:01;334.02;;;314.13;;
10248;SDS011;5169;50.560;9.714;2023-06-14T11:41:38;340.88;;;320.27;;
10248;SDS011;5169;50.560;9.714;2023-06-14T11:44:07;338.23;;;317.52;;
10248;SDS011;5169;50.560;9.714;2023-06-14T11:46:34;355.92;;;333.55;;
10248;SDS011;5169;50.560;9.714;2023-06-14T11:49:02;370.67;;;347.13;;
10248;SDS011;5169;50.560;9.714;2023-06-14T11:51:32;369.23;;;344.95;;
10248;SDS011;5169;50.560;9.714;2023-06-14T11:54:02;348.27;;;324.70;;
10248;SDS011;5169;50.560;9.714;2023-06-14T11:56:34;355.60;;;331.03;;
10248;SDS011;5169;50.560;9.714;2023-06-14T11:59:02;351.27;;;326.37;;
10248;SDS011;5169;50.560;9.714;2023-06-14T12:01:37;331.57;;;307.87;;
10248;SDS011;5169;50.560;9.714;2023-06-14T12:04:03;336.83;;;313.23;;
10248;SDS011;5169;50.560;9.714;2023-06-14T12:06:35;327.60;;;304.17;;
10248;SDS011;5169;50.560;9.714;2023-06-14T12:09:07;331.37;;;308.70;;
10248;SDS011;5169;50.560;9.714;2023-06-14T12:11:38;322.80;;;300.13;;
10248;SDS011;5169;50.560;9.714;2023-06-14T12:14:08;340.43;;;316.73;;
10248;SDS011;5169;50.560;9.714;2023-06-14T12:16:39;334.47;;;311.83;;
10248;SDS011;5169;50.560;9.714;2023-06-14T12:21:36;311.00;;;290.10;;
10248;SDS011;5169;50.560;9.714;2023-06-14T12:24:11;314.47;;;294.00;;
10248;SDS011;5169;50.560;9.714;2023-06-14T12:26:37;313.17;;;292.90;;
10248;SDS011;5169;50.560;9.714;2023-06-14T12:29:08;326.27;;;304.93;;
10248;SDS011;5169;50.560;9.714;2023-06-14T12:31:35;314.02;;;293.70;;
10248;SDS011;5169;50.560;9.714;2023-06-14T12:34:00;302.17;;;282.65;;
10248;SDS011;5169;50.560;9.714;2023-06-14T12:36:26;302.27;;;283.27;;
10248;SDS011;5169;50.560;9.714;2023-06-14T12:38:57;330.17;;;308.07;;
10248;SDS011;5169;50.560;9.714;2023-06-14T12:41:23;339.57;;;316.87;;
10248;SDS011;5169;50.560;9.714;2023-06-14T12:43:49;329.93;;;307.27;;
10248;SDS011;5169;50.560;9.714;2023-06-14T12:46:15;307.47;;;286.27;;
10248;SDS011;5169;50.560;9.714;2023-06-14T12:48:43;324.87;;;302.07;;
10248;SDS011;5169;50.560;9.714;2023-06-14T12:51:11;325.80;;;303.17;;
10248;SDS011;5169;50.560;9.714;2023-06-14T12:53:39;315.10;;;292.37;;
10248;SDS011;5169;50.560;9.714;2023-06-14T12:56:08;331.57;;;308.23;;
10248;SDS011;5169;50.560;9.714;2023-06-14T12:58:33;335.07;;;311.53;;
10248;SDS011;5169;50.560;9.714;2023-06-14T13:00:59;332.53;;;309.47;;
10248;SDS011;5169;50.560;9.714;2023-06-14T13:03:25;325.67;;;302.87;;
10248;SDS011;5169;50.560;9.714;2023-06-14T13:05:50;299.70;;;279.47;;
10248;SDS011;5169;50.560;9.714;2023-06-14T13:08:16;300.47;;;280.83;;
10248;SDS011;5169;50.560;9.714;2023-06-14T13:10:48;292.63;;;273.87;;
10248;SDS011;5169;50.560;9.714;2023-06-14T13:13:13;299.20;;;279.70;;
10248;SDS011;5169;50.560;9.714;2023-06-14T13:15:39;330.65;;;308.70;;
10248;SDS011;5169;50.560;9.714;2023-06-14T13:18:14;313.13;;;292.43;;
10248;SDS011;5169;50.560;9.714;2023-06-14T13:20:39;321.80;;;300.23;;
10248;SDS011;5169;50.560;9.714;2023-06-14T13:23:08;314.67;;;292.27;;
10248;SDS011;5169;50.560;9.714;2023-06-14T13:25:35;321.60;;;299.03;;
10248;SDS011;5169;50.560;9.714;2023-06-14T13:28:04;319.67;;;297.17;;
10248;SDS011;5169;50.560;9.714;2023-06-14T13:30:36;321.77;;;299.03;;
10248;SDS011;5169;50.560;9.714;2023-06-14T13:33:02;313.30;;;290.83;;
10248;SDS011;5169;50.560;9.714;2023-06-14T13:35:35;317.27;;;294.43;;
10248;SDS011;5169;50.560;9.714;2023-06-14T13:38:03;316.27;;;294.37;;
10248;SDS011;5169;50.560;9.714;2023-06-14T13:40:35;330.93;;;308.17;;
10248;SDS011;5169;50.560;9.714;2023-06-14T13:43:00;309.57;;;288.20;;
10248;SDS011;5169;50.560;9.714;2023-06-14T13:45:26;322.13;;;300.17;;
10248;SDS011;5169;50.560;9.714;2023-06-14T13:47:59;310.23;;;288.60;;
10248;SDS011;5169;50.560;9.714;2023-06-14T13:50:25;306.60;;;285.17;;
10248;SDS011;5169;50.560;9.714;2023-06-14T13:52:51;300.17;;;279.20;;
10248;SDS011;5169;50.560;9.714;2023-06-14T13:55:24;314.67;;;292.33;;
10248;SDS011;5169;50.560;9.714;2023-06-14T13:57:49;303.17;;;281.40;;
10248;SDS011;5169;50.560;9.714;2023-06-14T14:00:21;270.37;;;251.23;;
10248;SDS011;5169;50.560;9.714;2023-06-14T14:02:46;261.27;;;243.60;;
10248;SDS011;5169;50.560;9.714;2023-06-14T14:05:12;285.40;;;265.53;;
10248;SDS011;5169;50.560;9.714;2023-06-14T14:07:38;296.00;;;276.20;;
10248;SDS011;5169;50.560;9.714;2023-06-14T14:10:09;295.97;;;275.67;;
10248;SDS011;5169;50.560;9.714;2023-06-14T14:12:36;307.90;;;287.43;;
10248;SDS011;5169;50.560;9.714;2023-06-14T14:15:03;277.57;;;259.17;;
10248;SDS011;5169;50.560;9.714;2023-06-14T14:17:33;304.23;;;283.67;;
10248;SDS011;5169;50.560;9.714;2023-06-14T14:19:59;302.43;;;281.73;;
10248;SDS011;5169;50.560;9.714;2023-06-14T14:22:26;281.00;;;261.70;;
10248;SDS011;5169;50.560;9.714;2023-06-14T14:24:52;292.57;;;271.60;;
10248;SDS011;5169;50.560;9.714;2023-06-14T14:27:17;297.63;;;276.83;;
10248;SDS011;5169;50.560;9.714;2023-06-14T14:29:51;315.07;;;292.53;;
10248;SDS011;5169;50.560;9.714;2023-06-14T14:32:24;304.80;;;283.00;;
10248;SDS011;5169;50.560;9.714;2023-06-14T14:34:50;296.07;;;275.50;;
10248;SDS011;5169;50.560;9.714;2023-06-14T14:37:15;282.97;;;263.00;;
10248;SDS011;5169;50.560;9.714;2023-06-14T14:39:49;289.07;;;269.00;;
10248;SDS011;5169;50.560;9.714;2023-06-14T14:42:15;311.70;;;290.80;;
10248;SDS011;5169;50.560;9.714;2023-06-14T14:44:41;290.40;;;270.77;;
10248;SDS011;5169;50.560;9.714;2023-06-14T14:47:16;305.27;;;284.77;;